createdAt,value
2022-09-04T00:04:02.660Z,0.00
2022-09-04T00:09:10.327Z,0.00
2022-09-04T00:14:02.395Z,0.00
2022-09-04T00:19:02.323Z,0.00
2022-09-04T00:24:02.241Z,0.00
2022-09-04T00:29:02.288Z,0.00
2022-09-04T00:34:02.148Z,0.00
2022-09-04T00:39:02.315Z,0.00
2022-09-04T00:44:01.987Z,0.00
2022-09-04T00:49:05.355Z,0.00
2022-09-04T00:54:01.918Z,0.00
2022-09-04T00:59:01.956Z,0.00
2022-09-04T01:04:01.857Z,0.00
2022-09-04T01:09:01.785Z,0.00
2022-09-04T01:14:01.595Z,0.00
2022-09-04T01:19:01.564Z,0.00
2022-09-04T01:24:01.561Z,0.00
2022-09-04T01:29:01.441Z,0.00
2022-09-04T01:34:01.378Z,0.00
2022-09-04T01:39:01.342Z,0.00
2022-09-04T01:44:01.347Z,0.00
2022-09-04T01:49:04.314Z,0.00
2022-09-04T01:54:01.244Z,0.00
2022-09-04T01:59:01.200Z,0.00
2022-09-04T02:04:08.967Z,0.00
2022-09-04T02:09:08.341Z,0.00
2022-09-04T02:14:00.937Z,0.00
2022-09-04T02:19:00.897Z,0.00
2022-09-04T02:24:08.659Z,0.00
2022-09-04T02:29:00.652Z,0.00
2022-09-04T02:34:00.794Z,0.00
2022-09-04T02:39:00.496Z,0.00
2022-09-04T02:44:00.619Z,0.00
2022-09-04T02:49:03.413Z,0.00
2022-09-04T02:54:00.397Z,0.00
2022-09-04T02:59:00.540Z,0.00
2022-09-04T03:04:00.156Z,0.00
2022-09-04T03:09:00.241Z,0.00
2022-09-04T03:14:00.087Z,0.00
2022-09-04T03:19:00.012Z,0.00
2022-09-04T03:24:00.039Z,0.00
2022-09-04T03:29:00.103Z,0.00
2022-09-04T03:33:59.807Z,0.00
2022-09-04T03:38:59.738Z,0.00
2022-09-04T03:43:59.770Z,0.00
2022-09-04T03:49:02.701Z,0.00
2022-09-04T03:53:59.507Z,0.00
2022-09-04T03:59:00.196Z,0.00
2022-09-04T04:03:59.375Z,0.00
2022-09-04T04:08:59.529Z,0.00
2022-09-04T04:13:59.282Z,0.00
2022-09-04T04:18:59.595Z,0.00
2022-09-04T04:23:59.115Z,0.00
2022-09-04T04:28:59.153Z,5.62
2022-09-04T04:33:59.039Z,5.62
2022-09-04T04:38:59.062Z,11.25
2022-09-04T04:44:06.407Z,16.88
2022-09-04T04:49:01.889Z,22.50
2022-09-04T04:53:58.995Z,28.12
2022-09-04T04:58:58.672Z,33.75
2022-09-04T05:03:59.052Z,39.38
2022-09-04T05:08:58.639Z,45.00
2022-09-04T05:13:58.652Z,56.25
2022-09-04T05:18:58.598Z,84.38
2022-09-04T05:23:59.500Z,90.00
2022-09-04T05:28:58.394Z,106.88
2022-09-04T05:33:58.279Z,123.75
2022-09-04T05:38:58.167Z,157.50
2022-09-04T05:43:58.119Z,185.62
2022-09-04T05:49:01.097Z,213.75
2022-09-04T05:54:00.963Z,213.75
2022-09-04T05:58:58.139Z,253.12
2022-09-04T06:03:57.802Z,298.12
2022-09-04T06:08:58.732Z,326.25
2022-09-04T06:13:57.681Z,376.88
2022-09-04T06:18:57.686Z,506.25
2022-09-04T06:24:04.961Z,585.00
2022-09-04T06:29:05.987Z,675.00
2022-09-04T06:33:57.406Z,973.12
2022-09-04T06:38:57.726Z,860.62
2022-09-04T06:43:57.747Z,877.50
2022-09-04T06:49:00.331Z,928.12
2022-09-04T06:53:57.244Z,1153.12
2022-09-04T06:59:04.710Z,1282.50
2022-09-04T07:04:04.786Z,1456.88
2022-09-04T07:08:57.129Z,1580.62
2022-09-04T07:13:56.904Z,1625.62
2022-09-04T07:18:57.501Z,1693.12
2022-09-04T07:24:00.948Z,1670.62
2022-09-04T07:28:56.972Z,1698.75
2022-09-04T07:34:04.384Z,1828.12
2022-09-04T07:38:57.027Z,1828.12
2022-09-04T07:43:56.742Z,1760.62
2022-09-04T07:48:59.633Z,1845.00
2022-09-04T07:53:56.682Z,1822.50
2022-09-04T07:58:56.429Z,551.25
2022-09-04T08:03:56.395Z,483.75
2022-09-04T08:08:57.171Z,365.62
2022-09-04T08:14:05.289Z,298.12
2022-09-04T08:18:57.267Z,292.50
2022-09-04T08:23:56.387Z,292.50
2022-09-04T08:28:56.234Z,292.50
2022-09-04T08:33:56.036Z,286.88
2022-09-04T08:38:58.006Z,281.25
2022-09-04T08:43:55.982Z,281.25
2022-09-04T08:48:58.755Z,281.25
2022-09-04T08:53:55.937Z,275.62
2022-09-04T08:59:16.813Z,270.00
2022-09-04T09:03:55.641Z,270.00
2022-09-04T09:08:55.671Z,270.00
2022-09-04T09:13:59.855Z,270.00
2022-09-04T09:20:07.290Z,275.62
2022-09-04T09:25:07.145Z,270.00
2022-09-04T09:30:07.328Z,270.00
2022-09-04T09:35:08.502Z,264.38
2022-09-04T09:40:14.360Z,270.00
2022-09-04T09:45:06.948Z,270.00
2022-09-04T09:50:06.928Z,275.62
2022-09-04T09:55:06.801Z,281.25
2022-09-04T10:00:07.069Z,281.25
2022-09-04T10:05:07.023Z,275.62
2022-09-04T10:10:09.639Z,275.62
2022-09-04T10:15:06.731Z,270.00
2022-09-04T10:20:06.718Z,270.00
2022-09-04T10:25:06.693Z,264.38
2022-09-04T10:30:07.408Z,258.75
2022-09-04T10:35:15.038Z,258.75
2022-09-04T10:41:24.113Z,258.75
2022-09-04T10:46:24.200Z,253.12
2022-09-04T10:51:24.082Z,253.12
2022-09-04T10:57:40.991Z,253.12
2022-09-04T11:02:48.953Z,247.50
2022-09-04T11:07:48.417Z,247.50
2022-09-04T11:12:40.923Z,236.25
2022-09-04T11:17:40.574Z,236.25
2022-09-04T11:22:40.585Z,230.62
2022-09-04T11:27:40.486Z,230.62
2022-09-04T11:32:40.686Z,225.00
2022-09-04T11:37:48.138Z,225.00
2022-09-04T11:42:40.264Z,219.38
2022-09-04T11:47:43.210Z,219.38
2022-09-04T11:52:40.096Z,219.38
2022-09-04T11:57:40.178Z,225.00
2022-09-04T12:02:40.090Z,219.38
2022-09-04T12:07:43.320Z,219.38
2022-09-04T12:12:39.863Z,225.00
2022-09-04T12:17:39.927Z,225.00
2022-09-04T12:22:39.826Z,225.00
2022-09-04T12:27:39.677Z,225.00
2022-09-04T12:32:39.645Z,230.62
2022-09-04T12:37:39.866Z,230.62
2022-09-04T12:42:39.494Z,236.25
2022-09-04T12:47:43.059Z,241.88
2022-09-04T12:52:39.300Z,247.50
2022-09-04T12:57:39.371Z,253.12
2022-09-04T13:02:39.177Z,258.75
2022-09-04T13:07:39.291Z,258.75
2022-09-04T13:12:39.046Z,270.00
2022-09-04T13:17:39.098Z,264.38
2022-09-04T13:22:39.095Z,270.00
2022-09-04T13:27:38.974Z,275.62
2022-09-04T13:32:38.989Z,281.25
2022-09-04T13:37:39.100Z,292.50
2022-09-04T13:42:38.807Z,292.50
2022-09-04T13:47:42.186Z,303.75
2022-09-04T13:52:38.529Z,303.75
2022-09-04T13:57:38.693Z,315.00
2022-09-04T14:02:38.500Z,286.88
2022-09-04T14:07:40.567Z,337.50
2022-09-04T14:12:39.404Z,337.50
2022-09-04T14:17:38.323Z,343.12
2022-09-04T14:22:38.181Z,376.88
2022-09-04T14:27:38.397Z,382.50
2022-09-04T14:32:38.341Z,376.88
2022-09-04T14:37:37.891Z,348.75
2022-09-04T14:42:37.959Z,399.38
2022-09-04T14:47:40.839Z,410.62
2022-09-04T14:52:39.842Z,376.88
2022-09-04T14:57:38.778Z,247.50
2022-09-04T15:02:37.712Z,286.88
2022-09-04T15:07:38.142Z,461.25
2022-09-04T15:12:37.693Z,298.12
2022-09-04T15:17:37.535Z,511.88
2022-09-04T15:22:37.387Z,433.12
2022-09-04T15:27:37.470Z,281.25
2022-09-04T15:32:37.227Z,286.88
2022-09-04T15:37:37.409Z,320.62
2022-09-04T15:42:37.054Z,320.62
2022-09-04T15:47:40.050Z,258.75
2022-09-04T15:52:37.020Z,185.62
2022-09-04T15:57:36.965Z,185.62
2022-09-04T16:02:37.231Z,168.75
2022-09-04T16:07:37.726Z,146.25
2022-09-04T16:12:36.664Z,146.25
2022-09-04T16:17:36.728Z,163.12
2022-09-04T16:22:36.837Z,168.75
2022-09-04T16:27:36.489Z,191.25
2022-09-04T16:32:36.639Z,191.25
2022-09-04T16:37:36.613Z,219.38
2022-09-04T16:42:36.246Z,225.00
2022-09-04T16:47:39.223Z,213.75
2022-09-04T16:52:36.155Z,185.62
2022-09-04T16:57:36.144Z,140.62
2022-09-04T17:02:36.620Z,118.12
2022-09-04T17:07:36.234Z,101.25
2022-09-04T17:12:36.204Z,90.00
2022-09-04T17:17:36.164Z,84.38
2022-09-04T17:29:03.639Z,78.75
2022-09-04T17:29:13.392Z,61.88
2022-09-04T17:35:32.304Z,45.00
2022-09-04T17:40:51.889Z,33.75
2022-09-04T17:42:36.593Z,22.50
2022-09-04T17:47:38.543Z,11.25
2022-09-04T17:52:35.350Z,5.62
2022-09-04T17:57:35.529Z,5.62
2022-09-04T18:02:35.269Z,0.00
2022-09-04T18:08:07.694Z,0.00
2022-09-04T18:12:42.789Z,0.00
2022-09-04T18:17:35.061Z,0.00
2022-09-04T18:22:34.920Z,0.00
2022-09-04T18:27:34.927Z,0.00
2022-09-04T18:37:20.787Z,0.00
2022-09-04T18:37:44.141Z,0.00
2022-09-04T18:50:30.251Z,0.00
2022-09-04T18:50:51.125Z,0.00
2022-09-04T18:52:35.542Z,0.00
2022-09-04T18:57:34.496Z,0.00
2022-09-04T19:02:34.677Z,0.00
2022-09-04T19:07:34.370Z,0.00
2022-09-04T19:12:46.651Z,0.00
2022-09-04T19:17:35.329Z,0.00
2022-09-04T19:22:34.108Z,0.00
2022-09-04T19:27:34.288Z,0.00
2022-09-04T19:32:33.990Z,0.00
2022-09-04T19:41:56.415Z,0.00
2022-09-04T19:46:05.270Z,0.00
2022-09-04T19:47:38.011Z,0.00
2022-09-04T19:53:24.059Z,0.00
2022-09-04T19:57:34.683Z,0.00
2022-09-04T20:02:33.609Z,0.00
2022-09-04T20:07:36.309Z,0.00
2022-09-04T20:12:34.564Z,0.00
2022-09-04T20:17:33.473Z,0.00
2022-09-04T20:22:33.421Z,0.00
2022-09-04T20:27:33.342Z,0.00
2022-09-04T20:32:33.310Z,0.00
2022-09-04T20:37:33.205Z,0.00
2022-09-04T20:42:33.224Z,0.00
2022-09-04T20:52:43.478Z,0.00
2022-09-04T20:52:49.565Z,0.00
2022-09-04T21:03:08.665Z,0.00
2022-09-04T21:03:09.465Z,0.00
2022-09-04T21:07:33.753Z,0.00
2022-09-04T21:12:33.642Z,0.00
2022-09-04T21:17:34.822Z,0.00
2022-09-04T21:22:33.898Z,0.00
2022-09-04T21:27:32.489Z,0.00
2022-09-04T21:32:32.437Z,0.00
2022-09-04T21:37:32.339Z,0.00
2022-09-04T21:42:32.271Z,0.00
2022-09-04T21:47:36.336Z,0.00
2022-09-04T21:52:32.125Z,0.00
2022-09-04T22:02:35.217Z,0.00
2022-09-04T22:02:52.601Z,0.00
2022-09-04T22:12:18.235Z,0.00
2022-09-04T22:13:42.850Z,0.00
2022-09-04T22:17:32.921Z,0.00
2022-09-04T22:22:31.862Z,0.00
2022-09-04T22:27:31.714Z,0.00
2022-09-04T22:32:32.738Z,0.00
2022-09-04T22:37:31.516Z,0.00
2022-09-04T22:42:31.490Z,0.00
2022-09-04T22:47:42.342Z,0.00
2022-09-04T22:52:31.322Z,0.00
2022-09-04T22:57:31.464Z,0.00
2022-09-04T23:03:04.114Z,0.00
2022-09-04T23:11:28.693Z,0.00
2022-09-04T23:13:52.628Z,0.00
2022-09-04T23:17:32.151Z,0.00
2022-09-04T23:26:42.067Z,0.00
2022-09-04T23:27:32.293Z,0.00
2022-09-04T23:32:30.976Z,0.00
2022-09-04T23:37:30.784Z,0.00
2022-09-04T23:42:30.789Z,0.00
2022-09-04T23:47:48.769Z,0.00
2022-09-04T23:52:31.605Z,0.00
2022-09-04T23:57:30.678Z,0.00
